Time;durP1;ratioP1;P1;durP2;ratioP2;P2;SDS_P1;SDS_P2;PMS_P1;PMS_P2;Temp;Humidity;BMP_temperature;BMP_pressure;BME280_temperature;BME280_humidity;BME280_pressure;Samples;Min_cycle;Max_cycle;Signal;HPM_P1;HPM_P2
2021/06/21 00:00:56;;;;;;;3.55;2.58;;;20.80;84.20;;;;;;5088613;28;20028;-70
2021/06/21 00:03:22;;;;;;;3.25;2.28;;;20.80;84.50;;;;;;5088592;28;20042;-70
2021/06/21 00:05:47;;;;;;;3.58;2.55;;;20.70;84.40;;;;;;5088601;28;20027;-70
2021/06/21 00:08:13;;;;;;;4.45;2.45;;;20.70;84.20;;;;;;5088603;28;20079;-70
2021/06/21 00:10:39;;;;;;;5.50;2.47;;;20.70;84.20;;;;;;5088642;28;20020;-70
2021/06/21 00:13:04;;;;;;;3.15;2.50;;;20.70;84.20;;;;;;5088803;28;20039;-70
2021/06/21 00:15:31;;;;;;;4.82;3.20;;;20.70;84.60;;;;;;5088390;28;20515;-70
2021/06/21 00:17:56;;;;;;;4.35;3.05;;;20.60;84.60;;;;;;5088726;28;20036;-70
2021/06/21 00:20:23;;;;;;;4.72;2.50;;;20.60;83.80;;;;;;5088653;28;20538;-70
2021/06/21 00:22:51;;;;;;;4.20;2.38;;;20.60;83.50;;;;;;5088659;28;20032;-70
2021/06/21 00:25:17;;;;;;;4.03;2.30;;;20.60;83.40;;;;;;5088672;28;20508;-71
2021/06/21 00:27:43;;;;;;;3.83;2.47;;;20.50;83.00;;;;;;5088386;28;20028;-70
2021/06/21 00:30:12;;;;;;;6.28;2.50;;;20.60;82.90;;;;;;5088360;28;20373;-69
2021/06/21 00:32:40;;;;;;;4.53;2.78;;;20.60;83.00;;;;;;5088495;28;20089;-71
2021/06/21 00:35:06;;;;;;;3.08;2.40;;;20.60;82.80;;;;;;5088541;28;20024;-70
2021/06/21 00:37:32;;;;;;;4.95;2.42;;;20.60;82.90;;;;;;5088191;28;20035;-69
2021/06/21 00:39:58;;;;;;;3.88;2.30;;;20.60;83.10;;;;;;5088396;28;20016;-70
2021/06/21 00:42:24;;;;;;;9.30;2.72;;;20.60;83.80;;;;;;5088367;28;20111;-70
2021/06/21 00:44:49;;;;;;;4.18;2.28;;;20.60;83.00;;;;;;5088325;28;20039;-70
2021/06/21 00:47:16;;;;;;;7.85;2.33;;;20.50;82.80;;;;;;5088254;28;20070;-70
2021/06/21 00:49:41;;;;;;;3.65;2.38;;;20.50;82.70;;;;;;5087266;28;20063;-69
2021/06/21 00:52:15;;;;;;;4.07;2.25;;;20.50;82.40;;;;;;5092391;28;20063;-70
2021/06/21 00:54:41;;;;;;;3.45;2.40;;;20.40;82.30;;;;;;5092354;28;20032;-69
2021/06/21 00:57:07;;;;;;;3.20;1.83;;;20.40;82.00;;;;;;5092164;28;20085;-70
2021/06/21 00:59:33;;;;;;;3.58;2.20;;;20.40;81.20;;;;;;5092166;28;20077;-69
2021/06/21 01:01:59;;;;;;;3.63;2.40;;;20.40;80.80;;;;;;5092545;28;20510;-69
2021/06/21 01:04:25;;;;;;;2.95;2.03;;;20.40;80.80;;;;;;5092243;28;20024;-71
2021/06/21 01:06:50;;;;;;;7.15;2.22;;;20.50;80.60;;;;;;5092201;28;20028;-71
2021/06/21 01:09:16;;;;;;;5.10;2.15;;;20.50;80.60;;;;;;5092050;28;20514;-71
2021/06/21 01:11:45;;;;;;;3.30;2.35;;;20.50;80.90;;;;;;5091959;28;20025;-69
2021/06/21 01:14:20;;;;;;;4.70;2.38;;;20.40;81.00;;;;;;5090740;28;20139;-70
2021/06/21 01:17:11;;;;;;;4.20;2.00;;;20.40;81.00;;;;;;5092127;28;20434;-70
2021/06/21 01:19:58;;;;;;;2.53;1.45;;;20.40;81.50;;;;;;5091722;28;20105;-70
2021/06/21 01:23:01;;;;;;;2.65;1.95;;;20.30;80.80;;;;;;5091853;28;20081;-70
2021/06/21 01:25:33;;;;;;;3.30;2.55;;;20.30;80.80;;;;;;5091628;28;20058;-70
2021/06/21 01:28:17;;;;;;;3.05;2.05;;;20.30;81.00;;;;;;5091570;28;20032;-70
2021/06/21 01:31:07;;;;;;;3.60;2.00;;;20.30;80.90;;;;;;5091592;28;20031;-71
2021/06/21 01:33:35;;;;;;;3.22;2.05;;;20.30;80.90;;;;;;5091495;28;20837;-70
2021/06/21 01:36:03;;;;;;;3.00;2.00;;;20.20;80.60;;;;;;5091514;28;20052;-70
2021/06/21 01:38:37;;;;;;;3.45;1.50;;;20.30;80.50;;;;;;5091522;28;20020;-69
2021/06/21 01:41:06;;;;;;;4.97;1.92;;;20.30;80.50;;;;;;5091460;28;20036;-69
2021/06/21 01:43:38;;;;;;;2.50;1.90;;;20.30;79.70;;;;;;5091277;28;20024;-70
2021/06/21 01:46:06;;;;;;;2.63;1.48;;;20.30;79.80;;;;;;5091352;28;20488;-70
2021/06/21 01:48:35;;;;;;;4.30;1.88;;;20.30;80.00;;;;;;5091273;28;20028;-70
2021/06/21 01:51:02;;;;;;;8.00;2.25;;;20.30;80.20;;;;;;5091404;28;20024;-70
2021/06/21 01:53:32;;;;;;;3.22;1.83;;;20.30;80.00;;;;;;5091158;28;20712;-69
2021/06/21 01:56:15;;;;;;;6.32;2.22;;;20.20;80.40;;;;;;5091307;28;20028;-70
2021/06/21 01:58:42;;;;;;;3.10;1.92;;;20.20;80.30;;;;;;5091137;28;20374;-69
2021/06/21 02:01:15;;;;;;;3.17;1.85;;;20.20;80.10;;;;;;5090659;28;20031;-69
2021/06/21 02:03:48;;;;;;;3.55;1.55;;;20.20;79.30;;;;;;5090942;28;20112;-70
2021/06/21 02:06:15;;;;;;;5.07;1.85;;;20.30;79.40;;;;;;5091183;28;20039;-70
2021/06/21 02:08:42;;;;;;;4.90;1.80;;;20.30;79.40;;;;;;5090949;28;20054;-71
2021/06/21 02:11:08;;;;;;;4.53;1.90;;;20.40;79.60;;;;;;5090966;28;20016;-70
2021/06/21 02:13:35;;;;;;;6.13;1.63;;;20.30;79.80;;;;;;5090898;28;20062;-70
2021/06/21 02:16:02;;;;;;;3.92;1.92;;;20.40;79.90;;;;;;5090952;28;20560;-70
2021/06/21 02:18:28;;;;;;;2.25;1.83;;;20.40;79.60;;;;;;5090933;28;20027;-70
2021/06/21 02:20:54;;;;;;;2.92;1.70;;;20.40;79.60;;;;;;5090910;28;20492;-70
2021/06/21 02:23:23;;;;;;;2.30;1.50;;;20.40;79.40;;;;;;5090650;28;20020;-70
2021/06/21 02:25:50;;;;;;;6.63;2.15;;;20.50;80.10;;;;;;5090706;28;20032;-69
2021/06/21 02:28:18;;;;;;;3.53;1.70;;;20.50;79.40;;;;;;5090488;28;20085;-70
2021/06/21 02:30:45;;;;;;;9.45;2.00;;;20.50;79.20;;;;;;5090551;28;20412;-70
2021/06/21 02:33:13;;;;;;;5.38;2.15;;;20.50;79.00;;;;;;5090371;28;20028;-70
2021/06/21 02:35:39;;;;;;;2.38;1.80;;;20.50;79.50;;;;;;5090386;28;20036;-70
2021/06/21 02:38:04;;;;;;;3.50;2.08;;;20.50;79.50;;;;;;5090471;28;20035;-70
2021/06/21 02:40:30;;;;;;;4.30;2.42;;;20.50;79.70;;;;;;5090464;28;20028;-69
2021/06/21 02:42:56;;;;;;;9.85;2.40;;;20.40;80.30;;;;;;5090652;28;20059;-70
2021/06/21 02:45:22;;;;;;;6.88;2.25;;;20.30;81.30;;;;;;5090223;28;20480;-70
2021/06/21 02:47:49;;;;;;;7.72;2.30;;;20.20;82.10;;;;;;5090371;28;20145;-70
2021/06/21 02:50:15;;;;;;;2.65;2.08;;;20.20;82.40;;;;;;5090196;28;20059;-70
2021/06/21 02:53:10;;;;;;;3.95;2.35;;;20.10;82.80;;;;;;5090213;28;20864;-70
2021/06/21 02:55:58;;;;;;;8.73;2.13;;;20.10;83.20;;;;;;5089936;28;20039;-69
2021/06/21 02:58:27;;;;;;;4.88;2.35;;;20.00;83.40;;;;;;5090046;28;20608;-69
2021/06/21 03:00:54;;;;;;;8.68;3.30;;;20.00;83.60;;;;;;5089907;28;20031;-68
2021/06/21 03:03:26;;;;;;;8.93;2.40;;;20.00;83.80;;;;;;5088552;28;20032;-69
2021/06/21 03:05:55;;;;;;;5.13;2.63;;;19.90;84.10;;;;;;5088506;28;20027;-70
2021/06/21 03:08:22;;;;;;;9.50;2.60;;;19.90;84.10;;;;;;5089814;28;20032;-70
2021/06/21 03:10:48;;;;;;;5.47;2.25;;;20.00;84.50;;;;;;5089644;28;20089;-70
2021/06/21 03:13:17;;;;;;;5.22;2.58;;;20.00;84.30;;;;;;5088793;28;20024;-70
2021/06/21 03:15:43;;;;;;;5.53;3.00;;;20.10;83.80;;;;;;5089449;28;20077;-70
2021/06/21 03:18:11;;;;;;;5.88;2.88;;;20.10;84.50;;;;;;5089811;28;20443;-70
2021/06/21 03:20:37;;;;;;;5.38;2.88;;;20.20;84.70;;;;;;5089599;28;20488;-71
2021/06/21 03:23:04;;;;;;;6.03;3.15;;;20.40;84.60;;;;;;5089593;28;20408;-70
2021/06/21 03:25:34;;;;;;;6.85;2.95;;;20.40;84.40;;;;;;5088191;28;20027;-70
2021/06/21 03:28:10;;;;;;;4.03;2.88;;;20.50;84.50;;;;;;5089169;28;20134;-70
2021/06/21 03:30:37;;;;;;;11.45;3.40;;;20.60;84.20;;;;;;5089348;28;20023;-69
2021/06/21 03:33:03;;;;;;;4.90;2.65;;;20.60;84.40;;;;;;5089374;28;20119;-70
2021/06/21 03:35:29;;;;;;;7.85;2.88;;;20.70;84.30;;;;;;5089067;28;20107;-69
2021/06/21 03:37:54;;;;;;;6.43;2.88;;;20.80;84.20;;;;;;5089322;28;20103;-70
2021/06/21 03:40:21;;;;;;;9.63;3.00;;;20.80;82.90;;;;;;5089267;28;20024;-70
2021/06/21 03:42:47;;;;;;;4.65;2.75;;;20.90;82.90;;;;;;5089154;28;20016;-70
2021/06/21 03:45:13;;;;;;;6.22;1.98;;;20.90;82.60;;;;;;5089121;28;20070;-70
2021/06/21 03:47:40;;;;;;;7.97;2.10;;;20.90;82.20;;;;;;5088004;28;20032;-69
2021/06/21 03:50:07;;;;;;;4.93;2.45;;;20.90;81.70;;;;;;5089009;28;20036;-69
2021/06/21 03:52:33;;;;;;;6.03;2.65;;;21.10;81.60;;;;;;5088949;28;20020;-71
2021/06/21 03:55:08;;;;;;;7.30;2.70;;;21.20;81.80;;;;;;5088972;28;20405;-69
2021/06/21 03:57:39;;;;;;;6.93;3.17;;;21.30;81.90;;;;;;5088926;28;20056;-70
2021/06/21 04:00:27;;;;;;;5.93;3.05;;;21.50;82.10;;;;;;5088851;28;20020;-71
2021/06/21 04:02:53;;;;;;;4.43;3.17;;;21.80;80.60;;;;;;5088527;28;20036;-70
2021/06/21 04:05:20;;;;;;;3.17;2.25;;;22.20;79.60;;;;;;5088762;28;20135;-69
2021/06/21 04:07:46;;;;;;;7.18;2.95;;;22.50;78.60;;;;;;5088880;28;20081;-72
2021/06/21 04:10:16;;;;;;;3.08;2.28;;;22.80;77.20;;;;;;5088558;28;20036;-70
2021/06/21 04:12:42;;;;;;;5.40;2.90;;;23.20;76.20;;;;;;5088795;28;20077;-70
2021/06/21 04:15:10;;;;;;;11.27;2.72;;;23.40;75.50;;;;;;5088619;28;20028;-70
2021/06/21 04:17:37;;;;;;;9.90;3.00;;;23.60;75.10;;;;;;5088893;28;20487;-70
2021/06/21 04:20:11;;;;;;;5.25;2.78;;;23.70;74.70;;;;;;5088664;28;20754;-70
2021/06/21 04:22:38;;;;;;;3.45;2.40;;;23.80;74.30;;;;;;5088634;28;20036;-70
2021/06/21 04:25:05;;;;;;;5.03;2.85;;;23.90;74.00;;;;;;5088550;28;20024;-70
2021/06/21 04:27:31;;;;;;;10.10;3.00;;;24.10;74.00;;;;;;5088244;28;20032;-70
2021/06/21 04:29:57;;;;;;;6.50;2.90;;;24.20;73.70;;;;;;5088526;28;20043;-70
2021/06/21 04:32:22;;;;;;;11.45;3.33;;;24.30;73.70;;;;;;5088494;28;20028;-70
2021/06/21 04:34:48;;;;;;;14.15;3.22;;;24.40;73.20;;;;;;5088398;28;20028;-71
2021/06/21 04:37:14;;;;;;;12.38;3.60;;;24.40;72.90;;;;;;5088421;28;20035;-70
2021/06/21 04:39:39;;;;;;;8.35;3.28;;;24.50;73.20;;;;;;5086944;28;20067;-69
2021/06/21 04:42:05;;;;;;;11.20;2.95;;;24.60;73.40;;;;;;5088418;28;20123;-71
2021/06/21 04:44:31;;;;;;;8.90;2.70;;;24.70;73.10;;;;;;5088416;28;20059;-72
2021/06/21 04:46:56;;;;;;;13.57;2.45;;;24.80;72.60;;;;;;5087130;28;20024;-70
2021/06/21 04:49:22;;;;;;;9.70;3.08;;;25.00;71.70;;;;;;5087976;28;20072;-70
2021/06/21 04:51:50;;;;;;;14.60;3.03;;;25.10;71.40;;;;;;5088222;28;20028;-70
2021/06/21 04:54:16;;;;;;;19.95;2.80;;;25.10;71.00;;;;;;5088411;28;20013;-70
2021/06/21 04:56:42;;;;;;;15.38;3.33;;;25.10;70.80;;;;;;5088267;28;20572;-70
2021/06/21 04:59:08;;;;;;;13.57;2.55;;;25.10;71.30;;;;;;5088250;28;20028;-70
2021/06/21 05:01:34;;;;;;;16.33;2.65;;;25.20;70.20;;;;;;5086817;28;20488;-70
2021/06/21 05:04:00;;;;;;;15.70;2.95;;;25.20;70.00;;;;;;5087221;28;20024;-69
2021/06/21 05:06:27;;;;;;;12.80;2.28;;;25.30;69.60;;;;;;5088184;28;20035;-69
2021/06/21 05:08:54;;;;;;;10.55;2.95;;;25.20;69.20;;;;;;5086748;28;20118;-71
2021/06/21 05:11:20;;;;;;;18.90;2.55;;;25.20;69.40;;;;;;5088037;28;20028;-70
2021/06/21 05:13:45;;;;;;;17.13;2.53;;;25.30;69.50;;;;;;5087966;28;20039;-69
2021/06/21 05:16:11;;;;;;;16.88;3.10;;;25.40;69.50;;;;;;5088038;28;20028;-71
2021/06/21 05:18:38;;;;;;;9.40;2.30;;;25.60;68.80;;;;;;5088102;28;20057;-70
2021/06/21 05:21:04;;;;;;;18.00;2.67;;;25.70;68.90;;;;;;5086673;28;20024;-70
2021/06/21 05:23:30;;;;;;;9.18;2.15;;;25.90;66.40;;;;;;5087788;28;20028;-69
2021/06/21 05:25:56;;;;;;;7.78;1.75;;;25.90;66.00;;;;;;5087909;28;20036;-70
2021/06/21 05:28:22;;;;;;;15.50;2.47;;;25.90;66.30;;;;;;5087654;28;20413;-70
2021/06/21 05:30:47;;;;;;;16.67;3.05;;;26.00;66.70;;;;;;5086369;28;20504;-70
2021/06/21 05:33:14;;;;;;;23.35;2.95;;;26.10;66.10;;;;;;5087780;28;20412;-68
2021/06/21 05:35:41;;;;;;;17.35;2.28;;;26.10;65.60;;;;;;5087968;28;20043;-69
2021/06/21 05:38:07;;;;;;;16.65;2.90;;;26.30;65.20;;;;;;5089735;28;20515;-70
2021/06/21 05:40:33;;;;;;;14.10;3.03;;;26.50;63.60;;;;;;5090669;28;20480;-70
2021/06/21 05:42:58;;;;;;;12.80;2.13;;;26.60;62.60;;;;;;5090457;28;20028;-70
2021/06/21 05:45:24;;;;;;;24.08;2.50;;;26.80;63.30;;;;;;5090329;28;20032;-70
2021/06/21 05:47:50;;;;;;;15.65;2.40;;;27.00;62.80;;;;;;5090390;28;20023;-70
2021/06/21 05:50:16;;;;;;;17.92;2.78;;;27.60;60.90;;;;;;5090276;28;20111;-71
2021/06/21 05:52:42;;;;;;;22.13;2.17;;;28.20;59.60;;;;;;5090710;28;20043;-70
2021/06/21 05:55:08;;;;;;;16.95;2.70;;;28.60;57.30;;;;;;5089786;28;20485;-70
2021/06/21 05:57:35;;;;;;;18.58;2.50;;;29.40;54.40;;;;;;5090959;28;20024;-71
2021/06/21 06:00:00;;;;;;;19.15;2.13;;;30.50;51.00;;;;;;5091065;28;20028;-71
2021/06/21 06:02:26;;;;;;;10.35;2.25;;;32.10;47.40;;;;;;5090673;28;20677;-71
2021/06/21 06:04:52;;;;;;;17.67;2.80;;;33.20;44.20;;;;;;5088773;28;20165;-71
2021/06/21 06:07:18;;;;;;;14.32;1.92;;;34.00;42.00;;;;;;5090128;28;20125;-71
2021/06/21 06:09:44;;;;;;;8.15;1.92;;;34.60;40.10;;;;;;5089864;28;20099;-72
2021/06/21 06:12:10;;;;;;;18.30;3.13;;;35.10;39.50;;;;;;5090067;28;20020;-71
2021/06/21 06:14:36;;;;;;;17.58;3.50;;;35.50;37.50;;;;;;5090280;28;20051;-71
2021/06/21 06:17:02;;;;;;;13.57;2.60;;;36.00;37.70;;;;;;5090745;28;20024;-71
2021/06/21 06:19:28;;;;;;;14.95;3.22;;;36.20;36.90;;;;;;5090436;28;20381;-72
2021/06/21 06:21:54;;;;;;;14.48;2.63;;;36.60;36.60;;;;;;5090705;28;20032;-72
2021/06/21 06:24:20;;;;;;;26.25;3.03;;;37.20;34.00;;;;;;5090595;28;20034;-72
2021/06/21 06:26:45;;;;;;;25.80;2.72;;;37.40;33.70;;;;;;5090572;28;20040;-72
2021/06/21 06:29:12;;;;;;;20.08;2.88;;;37.20;34.70;;;;;;5090321;28;20661;-72
2021/06/21 06:31:38;;;;;;;14.50;2.67;;;37.10;34.20;;;;;;5090376;28;20052;-71
2021/06/21 06:34:04;;;;;;;13.27;2.83;;;36.90;34.80;;;;;;5090491;28;20506;-71
2021/06/21 06:36:29;;;;;;;14.82;2.15;;;36.90;34.60;;;;;;5090391;28;20028;-71
2021/06/21 06:38:55;;;;;;;14.63;2.38;;;37.10;33.80;;;;;;5090396;28;20032;-72
2021/06/21 06:41:21;;;;;;;15.90;2.75;;;37.00;34.70;;;;;;5090570;28;20742;-70
2021/06/21 06:43:47;;;;;;;10.80;2.33;;;37.20;35.00;;;;;;5090266;28;20040;-72
2021/06/21 06:46:13;;;;;;;12.48;2.72;;;37.10;34.90;;;;;;5090221;28;20027;-71
2021/06/21 06:48:39;;;;;;;13.95;2.40;;;37.60;34.40;;;;;;5090181;28;20784;-72
2021/06/21 06:51:05;;;;;;;19.13;2.47;;;37.60;33.50;;;;;;5090149;28;20119;-70
2021/06/21 06:54:01;;;;;;;13.15;2.63;;;37.30;33.80;;;;;;5089930;28;20032;-70
2021/06/21 06:59:00;;;;;;;7.78;2.40;;;37.30;32.70;;;;;;5089914;28;20031;-72
2021/06/21 07:01:28;;;;;;;14.88;2.92;;;37.40;33.80;;;;;;5089896;28;20396;-71
2021/06/21 07:03:53;;;;;;;20.45;2.67;;;37.10;33.90;;;;;;5089818;28;20024;-70
2021/06/21 07:06:19;;;;;;;19.73;2.55;;;37.00;33.80;;;;;;5089836;28;20063;-70
2021/06/21 07:08:46;;;;;;;21.65;3.47;;;37.10;34.30;;;;;;5089587;28;20412;-70
2021/06/21 07:11:15;;;;;;;17.05;2.17;;;37.50;33.10;;;;;;5089647;28;20476;-70
2021/06/21 07:13:42;;;;;;;12.35;3.47;;;37.60;33.50;;;;;;5089822;28;20085;-71
2021/06/21 07:16:08;;;;;;;17.90;2.80;;;37.70;33.00;;;;;;5089639;28;20043;-71
2021/06/21 07:18:33;;;;;;;26.52;7.43;;;37.90;32.80;;;;;;5088475;28;20040;-71
2021/06/21 07:20:59;;;;;;;13.48;3.25;;;37.30;33.60;;;;;;5089383;28;20066;-71
2021/06/21 07:23:26;;;;;;;10.93;3.05;;;37.40;34.00;;;;;;5089371;28;20024;-70
2021/06/21 07:25:52;;;;;;;16.60;4.13;;;37.50;35.10;;;;;;5089466;28;20614;-71
2021/06/21 07:28:17;;;;;;;15.88;3.40;;;37.60;34.70;;;;;;5089423;28;20127;-71
2021/06/21 07:30:44;;;;;;;19.17;7.35;;;37.80;35.40;;;;;;5089496;28;20039;-72
2021/06/21 07:33:11;;;;;;;22.90;4.38;;;37.60;34.90;;;;;;5089358;28;20107;-71
2021/06/21 07:35:40;;;;;;;13.93;3.10;;;37.20;35.20;;;;;;5089272;28;20023;-71
2021/06/21 07:38:06;;;;;;;20.10;3.78;;;37.00;35.90;;;;;;5088634;28;20454;-71
2021/06/21 07:40:33;;;;;;;23.15;4.43;;;37.40;35.10;;;;;;5088097;28;20500;-72
2021/06/21 07:42:58;;;;;;;23.35;3.58;;;37.30;35.10;;;;;;5086796;28;20036;-71
2021/06/21 07:45:24;;;;;;;11.00;3.25;;;37.30;35.00;;;;;;5088008;28;20027;-70
2021/06/21 07:47:52;;;;;;;20.10;3.45;;;37.20;35.20;;;;;;5088206;28;20468;-69
2021/06/21 07:50:18;;;;;;;22.27;3.42;;;37.50;34.00;;;;;;5088290;28;20036;-71
2021/06/21 07:52:44;;;;;;;16.20;3.78;;;37.30;34.60;;;;;;5088408;28;20032;-69
2021/06/21 07:55:10;;;;;;;8.18;2.47;;;37.50;34.40;;;;;;5088911;28;20031;-69
2021/06/21 07:57:35;;;;;;;19.40;3.42;;;37.40;34.40;;;;;;5087740;28;20042;-70
2021/06/21 08:00:02;;;;;;;9.32;3.00;;;37.40;34.70;;;;;;5088486;28;20141;-69
2021/06/21 08:02:28;;;;;;;13.80;3.22;;;37.40;35.30;;;;;;5088784;28;20036;-69
2021/06/21 08:04:54;;;;;;;14.23;3.08;;;37.60;34.70;;;;;;5088719;28;20035;-69
2021/06/21 08:07:19;;;;;;;9.52;2.45;;;37.40;34.40;;;;;;5088756;28;20514;-69
2021/06/21 08:09:45;;;;;;;11.02;2.65;;;37.30;34.70;;;;;;5088664;28;20267;-70
2021/06/21 08:12:11;;;;;;;17.05;2.58;;;37.30;35.10;;;;;;5088938;28;20031;-70
2021/06/21 08:14:39;;;;;;;13.70;3.28;;;37.40;35.10;;;;;;5088885;28;20107;-70
2021/06/21 08:17:04;;;;;;;17.20;3.70;;;37.60;35.00;;;;;;5088875;28;20024;-70
2021/06/21 08:19:30;;;;;;;21.27;3.30;;;37.60;35.60;;;;;;5088756;28;20024;-70
2021/06/21 08:21:55;;;;;;;11.80;3.35;;;37.00;35.30;;;;;;5088878;28;20028;-69
2021/06/21 08:24:21;;;;;;;14.02;3.17;;;36.80;36.20;;;;;;5088753;28;20123;-70
2021/06/21 08:26:47;;;;;;;21.77;3.63;;;37.10;36.90;;;;;;5088539;28;20163;-69
2021/06/21 08:29:12;;;;;;;11.65;3.55;;;37.10;37.50;;;;;;5088192;28;20063;-69
2021/06/21 08:31:38;;;;;;;14.55;3.13;;;37.30;36.70;;;;;;5088634;28;20035;-70
2021/06/21 08:34:04;;;;;;;18.15;2.92;;;36.90;36.70;;;;;;5088614;28;20081;-70
2021/06/21 08:36:29;;;;;;;12.05;3.30;;;37.10;36.70;;;;;;5088701;28;21009;-69
2021/06/21 08:38:55;;;;;;;15.55;3.08;;;37.10;37.00;;;;;;5088568;28;20484;-70
2021/06/21 08:41:21;;;;;;;13.75;2.80;;;37.00;36.60;;;;;;5088388;28;20089;-68
2021/06/21 08:43:47;;;;;;;18.02;2.95;;;37.40;36.80;;;;;;5088427;28;20073;-69
2021/06/21 08:46:16;;;;;;;13.82;2.97;;;37.50;36.30;;;;;;5088428;28;20032;-69
2021/06/21 08:48:44;;;;;;;12.57;2.83;;;37.40;36.30;;;;;;5088272;28;20032;-69
2021/06/21 08:51:12;;;;;;;13.32;4.20;;;37.10;35.60;;;;;;5088386;28;20032;-69
2021/06/21 08:53:38;;;;;;;18.38;2.75;;;36.90;36.30;;;;;;5088255;28;20016;-69
2021/06/21 08:56:06;;;;;;;11.63;2.67;;;36.70;37.40;;;;;;5088485;28;20393;-69
2021/06/21 08:58:31;;;;;;;11.15;3.00;;;37.40;36.50;;;;;;5088270;28;20020;-69
2021/06/21 09:00:57;;;;;;;11.65;2.15;;;37.60;34.80;;;;;;5088387;28;20030;-69
2021/06/21 09:03:23;;;;;;;9.40;2.55;;;37.50;34.50;;;;;;5088328;28;20107;-69
2021/06/21 09:05:49;;;;;;;12.15;2.35;;;37.50;35.20;;;;;;5088485;28;20241;-69
2021/06/21 09:08:14;;;;;;;9.98;2.70;;;37.60;34.80;;;;;;5088407;28;20078;-68
2021/06/21 09:10:41;;;;;;;7.57;2.13;;;37.50;35.20;;;;;;5088688;28;20024;-69
2021/06/21 09:13:15;;;;;;;15.25;2.85;;;37.80;36.60;;;;;;5092335;28;20028;-69
2021/06/21 09:15:52;;;;;;;22.98;2.50;;;38.30;35.40;;;;;;5091103;28;20020;-69
2021/06/21 09:18:24;;;;;;;8.05;2.75;;;38.70;33.80;;;;;;5092530;28;20027;-69
2021/06/21 09:21:10;;;;;;;12.63;2.35;;;38.60;33.40;;;;;;5091910;28;20624;-69
2021/06/21 09:23:36;;;;;;;10.02;2.47;;;38.50;34.10;;;;;;5090401;28;20054;-69
2021/06/21 09:26:19;;;;;;;10.02;2.33;;;38.80;33.80;;;;;;5091979;28;20031;-70
2021/06/21 09:28:45;;;;;;;7.82;2.30;;;39.30;31.70;;;;;;5091684;28;20138;-70
2021/06/21 09:31:11;;;;;;;9.95;2.42;;;39.00;32.40;;;;;;5091947;28;20020;-69
2021/06/21 09:33:37;;;;;;;11.07;2.28;;;38.90;32.30;;;;;;5091764;28;20101;-71
2021/06/21 09:36:04;;;;;;;9.60;2.63;;;38.90;31.50;;;;;;5092228;28;20429;-69
2021/06/21 09:38:29;;;;;;;12.95;2.33;;;38.70;32.50;;;;;;5091728;28;20028;-69
2021/06/21 09:40:57;;;;;;;8.40;2.20;;;38.40;33.00;;;;;;5091866;28;20499;-69
2021/06/21 09:43:33;;;;;;;6.75;2.03;;;38.30;33.30;;;;;;5091457;28;20031;-68
2021/06/21 09:46:16;;;;;;;5.35;1.67;;;38.10;32.40;;;;;;5090361;28;20082;-69
2021/06/21 09:48:46;;;;;;;14.48;2.92;;;38.00;33.00;;;;;;5091376;28;20028;-70
2021/06/21 09:51:34;;;;;;;16.27;2.35;;;37.90;34.20;;;;;;5091502;28;20442;-70
2021/06/21 09:54:12;;;;;;;9.48;2.17;;;37.90;33.00;;;;;;5091626;28;20032;-69
2021/06/21 09:56:51;;;;;;;9.18;2.28;;;37.50;34.40;;;;;;5091565;28;20081;-69
2021/06/21 09:59:27;;;;;;;9.40;1.80;;;37.50;34.50;;;;;;5091335;28;20063;-69
2021/06/21 10:02:24;;;;;;;8.05;2.15;;;37.30;35.10;;;;;;5091371;28;20035;-68
2021/06/21 10:04:50;;;;;;;6.45;2.50;;;37.40;35.40;;;;;;5089344;28;20043;-68
2021/06/21 10:07:32;;;;;;;14.35;2.47;;;37.00;35.20;;;;;;5090796;28;20028;-69
2021/06/21 10:10:01;;;;;;;10.18;2.40;;;36.60;36.40;;;;;;5090889;28;20048;-69
2021/06/21 10:12:27;;;;;;;6.85;2.65;;;36.20;37.20;;;;;;5089825;28;20389;-68
2021/06/21 10:14:53;;;;;;;5.35;2.15;;;36.10;37.40;;;;;;5091055;28;20035;-69
2021/06/21 10:29:30;;;;;;;;;;;35.90;37.00;;;;;;5105732;27;20222;-84
2021/06/21 10:31:57;;;;;;;9.23;2.80;;;34.30;38.60;;;;;;5088048;28;19943;-86
2021/06/21 10:34:23;;;;;;;5.85;2.45;;;34.10;39.90;;;;;;5088016;28;20043;-85
2021/06/21 10:36:51;;;;;;;8.98;2.67;;;34.10;39.90;;;;;;5088323;28;20495;-85
2021/06/21 10:39:19;;;;;;;4.50;2.63;;;34.20;41.30;;;;;;5088484;28;20244;-85
2021/06/21 10:42:04;;;;;;;3.53;2.05;;;34.30;41.00;;;;;;5088553;28;20101;-85
2021/06/21 10:44:38;;;;;;;8.40;2.20;;;34.50;40.30;;;;;;5088226;28;20028;-86
2021/06/21 10:47:24;;;;;;;4.55;2.33;;;34.60;40.50;;;;;;5088296;28;20052;-87
2021/06/21 10:50:02;;;;;;;7.00;2.47;;;34.80;40.10;;;;;;5088050;28;20029;-85
2021/06/21 10:52:31;;;;;;;5.40;2.72;;;34.60;39.90;;;;;;5088138;28;20031;-85
2021/06/21 10:55:25;;;;;;;2.80;2.22;;;34.50;40.20;;;;;;5088018;28;20111;-86
2021/06/21 10:57:55;;;;;;;7.38;2.05;;;34.40;41.60;;;;;;5087872;28;20031;-85
2021/06/21 11:00:30;;;;;;;3.58;2.30;;;34.30;41.30;;;;;;5087547;28;20039;-83
2021/06/21 11:02:56;;;;;;;7.90;2.80;;;34.30;41.10;;;;;;5087213;28;20373;-85
2021/06/21 11:05:38;;;;;;;9.65;2.15;;;34.20;40.80;;;;;;5086921;28;20043;-85
2021/06/21 11:08:17;;;;;;;7.15;2.40;;;34.10;40.70;;;;;;5087510;28;20039;-83
2021/06/21 11:10:45;;;;;;;6.07;2.70;;;33.90;40.90;;;;;;5087448;28;20024;-84
2021/06/21 11:13:35;;;;;;;7.57;2.78;;;33.80;41.20;;;;;;5087297;28;20161;-83
2021/06/21 11:16:18;;;;;;;7.55;2.42;;;33.60;40.50;;;;;;5087238;28;20028;-85
2021/06/21 11:18:49;;;;;;;5.97;2.63;;;33.40;41.90;;;;;;5081780;28;20033;-83
2021/06/21 11:21:16;;;;;;;21.92;2.75;;;33.20;40.20;;;;;;5067762;28;20488;-84
2021/06/21 11:23:47;;;;;;;3.90;2.42;;;33.10;41.50;;;;;;5066610;28;20029;-83
2021/06/21 11:26:14;;;;;;;6.20;2.78;;;33.10;41.70;;;;;;5066391;28;20094;-83
2021/06/21 11:28:58;;;;;;;4.60;2.40;;;33.30;41.30;;;;;;5063189;28;20099;-84
2021/06/21 11:31:26;;;;;;;5.60;1.92;;;33.30;42.60;;;;;;5053421;28;20028;-84
2021/06/21 11:33:57;;;;;;;9.23;3.10;;;33.30;41.20;;;;;;5053317;28;20095;-84
2021/06/21 11:36:50;;;;;;;9.73;2.70;;;33.50;41.30;;;;;;5053041;28;20064;-84
2021/06/21 11:39:27;;;;;;;11.48;3.03;;;33.50;39.50;;;;;;5051053;28;20071;-85
2021/06/21 11:41:59;;;;;;;8.52;2.80;;;33.60;41.10;;;;;;5052909;28;20393;-85
2021/06/21 11:44:40;;;;;;;4.57;1.80;;;33.60;41.80;;;;;;5050012;28;20120;-84
2021/06/21 11:47:22;;;;;;;4.10;2.10;;;33.80;41.40;;;;;;5033292;28;20048;-85
2021/06/21 11:49:52;;;;;;;4.80;2.17;;;33.80;41.30;;;;;;5032996;28;20022;-84
2021/06/21 11:52:23;;;;;;;5.03;2.33;;;33.80;41.40;;;;;;5032836;28;20029;-85
2021/06/21 11:54:50;;;;;;;4.85;2.15;;;33.90;41.20;;;;;;5033235;28;20021;-85
2021/06/21 11:57:18;;;;;;;5.70;2.65;;;33.90;39.90;;;;;;5032815;28;20041;-85
2021/06/21 11:59:51;;;;;;;6.50;2.83;;;33.90;40.70;;;;;;5044406;28;20380;-84
2021/06/21 12:02:20;;;;;;;4.57;2.35;;;33.80;39.80;;;;;;5052670;28;20036;-84
2021/06/21 12:04:47;;;;;;;5.63;2.25;;;33.70;40.40;;;;;;5052970;28;20520;-83
2021/06/21 12:07:33;;;;;;;4.10;2.53;;;33.40;40.10;;;;;;5052262;28;20029;-84
2021/06/21 12:10:03;;;;;;;6.13;1.83;;;33.30;40.40;;;;;;5052594;28;20051;-84
2021/06/21 12:12:34;;;;;;;6.10;2.20;;;33.30;41.60;;;;;;5053688;28;20078;-84
2021/06/21 12:15:01;;;;;;;7.70;2.67;;;33.50;41.90;;;;;;5052235;28;20033;-84
2021/06/21 12:17:29;;;;;;;4.53;2.25;;;33.60;41.70;;;;;;5051989;28;20036;-84
2021/06/21 12:20:16;;;;;;;7.72;2.30;;;33.90;41.10;;;;;;5052023;28;20527;-84
2021/06/21 12:22:52;;;;;;;3.75;2.03;;;34.00;41.20;;;;;;5049389;28;20032;-84
2021/06/21 12:25:27;;;;;;;4.45;2.47;;;34.00;39.90;;;;;;5033871;28;20052;-83
2021/06/21 12:27:53;;;;;;;5.22;2.10;;;34.10;40.90;;;;;;5032227;28;20075;-84
2021/06/21 12:30:59;;;;;;;5.57;1.90;;;34.20;41.40;;;;;;5032464;28;20030;-85
2021/06/21 12:33:33;;;;;;;6.35;2.30;;;34.40;39.80;;;;;;5032206;28;20037;-84
2021/06/21 12:36:17;;;;;;;5.80;2.38;;;34.50;39.50;;;;;;5032252;28;20025;-83
2021/06/21 12:38:51;;;;;;;7.55;2.28;;;34.50;39.70;;;;;;5033579;28;20037;-82
2021/06/21 12:41:17;;;;;;;4.25;2.22;;;34.40;40.00;;;;;;5031452;28;20088;-84
2021/06/21 12:44:15;;;;;;;2.92;1.98;;;34.50;39.40;;;;;;5032081;28;20456;-84
2021/06/21 12:46:45;;;;;;;5.15;1.90;;;34.60;40.30;;;;;;5002290;28;20072;-84
2021/06/21 12:49:13;;;;;;;4.63;1.83;;;34.80;40.20;;;;;;5031974;28;20022;-84
2021/06/21 12:51:40;;;;;;;10.80;2.65;;;34.80;40.30;;;;;;5031826;28;20044;-85
2021/06/21 12:54:07;;;;;;;3.60;1.70;;;34.80;40.00;;;;;;5033021;28;20029;-83
2021/06/21 12:56:36;;;;;;;3.92;2.03;;;34.90;39.00;;;;;;5032037;28;20033;-85
2021/06/21 12:59:04;;;;;;;5.82;2.22;;;34.90;38.50;;;;;;5032676;28;20129;-85
2021/06/21 13:01:35;;;;;;;3.63;2.25;;;34.80;38.60;;;;;;5033183;28;20029;-84
2021/06/21 13:04:21;;;;;;;4.88;2.25;;;34.60;38.10;;;;;;5032329;28;20060;-84
2021/06/21 13:06:54;;;;;;;4.93;2.28;;;34.00;38.90;;;;;;5031721;28;20025;-86
2021/06/21 13:09:19;;;;;;;7.13;2.00;;;33.70;40.00;;;;;;5031780;28;20486;-85